createdAt,value
2023-01-23T00:01:30.665Z,30.50
2023-01-23T00:03:57.842Z,27.50
2023-01-23T00:06:25.562Z,32.00
2023-01-23T00:08:52.518Z,37.50
2023-01-23T00:11:22.284Z,30.50
2023-01-23T00:13:49.588Z,30.25
2023-01-23T00:16:19.470Z,28.25
2023-01-23T00:18:47.532Z,29.00
2023-01-23T00:21:16.824Z,25.75
2023-01-23T00:23:45.958Z,29.00
2023-01-23T00:26:15.870Z,27.00
2023-01-23T00:28:45.461Z,29.00
2023-01-23T00:31:16.764Z,26.50
2023-01-23T00:33:44.752Z,29.00
2023-01-23T00:36:13.670Z,31.00
2023-01-23T00:38:41.724Z,32.00
2023-01-23T00:41:09.124Z,32.50
2023-01-23T00:43:35.930Z,29.00
2023-01-23T00:46:02.788Z,32.00
2023-01-23T00:48:29.648Z,31.00
2023-01-23T00:50:56.646Z,30.25
2023-01-23T00:53:23.931Z,30.25
2023-01-23T00:55:50.918Z,26.25
2023-01-23T00:58:18.671Z,29.00
2023-01-23T01:00:45.971Z,25.75
2023-01-23T01:03:13.112Z,30.25
2023-01-23T01:05:41.739Z,29.00
2023-01-23T01:08:08.570Z,25.25
2023-01-23T01:10:35.358Z,30.25
2023-01-23T01:13:03.237Z,28.00
2023-01-23T01:15:30.369Z,29.25
2023-01-23T01:17:58.270Z,26.75
2023-01-23T01:20:27.112Z,27.00
2023-01-23T01:22:58.553Z,26.00
2023-01-23T01:25:26.098Z,24.75
2023-01-23T01:27:55.968Z,28.25
2023-01-23T01:30:23.549Z,29.75
2023-01-23T01:32:50.449Z,29.25
2023-01-23T01:35:17.290Z,22.75
2023-01-23T01:37:44.130Z,23.25
2023-01-23T01:40:18.779Z,25.00
2023-01-23T01:42:50.460Z,28.25
2023-01-23T01:45:54.809Z,29.00
2023-01-23T01:48:27.156Z,17.00
2023-01-23T01:50:54.588Z,28.50
2023-01-23T01:53:25.490Z,26.25
2023-01-23T01:55:52.715Z,28.00
2023-01-23T01:58:19.975Z,31.00
2023-01-23T02:00:47.338Z,30.25
2023-01-23T02:03:17.026Z,27.00
2023-01-23T02:05:47.541Z,30.25
2023-01-23T02:08:36.783Z,26.00
2023-01-23T02:11:05.225Z,28.75
2023-01-23T02:13:40.013Z,29.00
2023-01-23T02:16:21.724Z,30.00
2023-01-23T02:18:53.819Z,30.75
2023-01-23T02:21:25.073Z,31.75
2023-01-23T02:24:00.488Z,34.00
2023-01-23T02:26:41.338Z,30.00
2023-01-23T02:29:08.930Z,30.00
2023-01-23T02:31:46.125Z,32.25
2023-01-23T02:34:14.719Z,31.75
2023-01-23T02:36:46.255Z,34.75
2023-01-23T02:39:19.522Z,33.25
2023-01-23T02:41:54.935Z,29.75
2023-01-23T02:44:31.846Z,30.75
2023-01-23T02:47:05.873Z,25.50
2023-01-23T02:49:33.105Z,28.25
2023-01-23T02:52:03.621Z,34.00
2023-01-23T02:54:31.753Z,34.00
2023-01-23T02:56:58.710Z,31.00
2023-01-23T02:59:44.021Z,28.75
2023-01-23T03:02:11.136Z,32.00
2023-01-23T03:04:37.997Z,26.50
2023-01-23T03:07:04.746Z,30.00
2023-01-23T03:09:31.674Z,28.50
2023-01-23T03:11:58.799Z,30.00
2023-01-23T03:14:26.211Z,29.75
2023-01-23T03:16:55.006Z,35.25
2023-01-23T03:19:26.682Z,35.00
2023-01-23T03:21:54.238Z,30.75
2023-01-23T03:24:21.164Z,31.00
2023-01-23T03:26:49.827Z,34.00
2023-01-23T03:29:41.491Z,36.75
2023-01-23T03:32:11.392Z,35.00
2023-01-23T03:34:39.023Z,33.00
2023-01-23T03:37:08.047Z,35.75
2023-01-23T03:39:55.117Z,31.00
2023-01-23T03:42:22.712Z,32.75
2023-01-23T03:44:53.025Z,31.25
2023-01-23T03:47:24.048Z,34.00
2023-01-23T03:49:50.889Z,33.25
2023-01-23T03:52:18.971Z,28.00
2023-01-23T03:54:45.831Z,31.75
2023-01-23T03:57:12.595Z,35.00
2023-01-23T03:59:48.782Z,35.50
2023-01-23T04:02:18.300Z,37.50
2023-01-23T04:04:45.215Z,39.00
2023-01-23T04:07:12.103Z,38.25
2023-01-23T04:09:41.095Z,35.00
2023-01-23T04:12:07.975Z,35.25
2023-01-23T04:14:38.835Z,38.75
2023-01-23T04:17:06.564Z,36.00
2023-01-23T04:19:34.632Z,37.00
2023-01-23T04:22:02.495Z,36.75
2023-01-23T04:24:33.591Z,37.50
2023-01-23T04:27:00.386Z,37.00
2023-01-23T04:29:28.413Z,38.25
2023-01-23T04:31:55.306Z,42.00
2023-01-23T04:34:22.324Z,42.50
2023-01-23T04:36:51.025Z,39.25
2023-01-23T04:39:17.885Z,38.50
2023-01-23T04:41:48.068Z,40.00
2023-01-23T04:44:27.465Z,40.00
2023-01-23T04:47:20.561Z,42.25
2023-01-23T04:49:48.432Z,40.00
2023-01-23T04:52:15.284Z,37.25
2023-01-23T04:54:51.204Z,39.00
2023-01-23T04:57:18.091Z,37.50
2023-01-23T04:59:44.930Z,31.00
2023-01-23T05:02:11.803Z,28.75
2023-01-23T05:04:42.391Z,35.25
2023-01-23T05:07:12.232Z,39.00
2023-01-23T05:09:44.040Z,37.50
2023-01-23T05:12:14.422Z,37.00
2023-01-23T05:14:42.046Z,35.25
2023-01-23T05:17:09.475Z,36.75
2023-01-23T05:19:41.679Z,38.00
2023-01-23T05:22:08.529Z,38.00
2023-01-23T05:24:35.445Z,40.50
2023-01-23T05:27:03.348Z,40.00
2023-01-23T05:29:30.977Z,42.50
2023-01-23T05:32:03.064Z,43.25
2023-01-23T05:34:39.121Z,47.00
2023-01-23T05:37:34.923Z,42.00
2023-01-23T05:40:08.710Z,41.25
2023-01-23T05:43:07.728Z,39.00
2023-01-23T05:46:07.098Z,42.75
2023-01-23T05:49:00.219Z,41.00
2023-01-23T05:51:32.415Z,39.00
2023-01-23T05:54:02.117Z,45.25
2023-01-23T05:56:29.329Z,42.25
2023-01-23T05:59:16.355Z,51.25
2023-01-23T06:01:54.547Z,49.25
2023-01-23T06:04:39.656Z,52.00
2023-01-23T06:07:18.766Z,55.00
2023-01-23T06:09:47.438Z,47.75
2023-01-23T06:12:14.837Z,48.00
2023-01-23T06:14:41.683Z,48.75
2023-01-23T06:17:08.838Z,55.00
2023-01-23T06:19:35.970Z,65.25
2023-01-23T06:22:03.850Z,56.50
2023-01-23T06:24:37.864Z,47.25
2023-01-23T06:27:08.361Z,47.50
2023-01-23T06:29:36.947Z,48.25
2023-01-23T06:32:04.663Z,63.25
2023-01-23T06:34:31.587Z,41.00
2023-01-23T06:37:03.079Z,41.25
2023-01-23T06:39:34.201Z,40.00
2023-01-23T06:42:02.191Z,42.25
2023-01-23T06:44:29.034Z,42.25
2023-01-23T06:46:55.997Z,42.00
2023-01-23T06:49:24.395Z,40.25
2023-01-23T06:51:52.304Z,40.75
2023-01-23T06:54:19.602Z,41.25
2023-01-23T06:56:46.360Z,42.25
2023-01-23T06:59:13.396Z,74.25
2023-01-23T07:01:40.997Z,54.00
2023-01-23T07:04:26.302Z,59.50
2023-01-23T07:06:53.279Z,78.75
2023-01-23T07:09:20.783Z,65.50
2023-01-23T07:12:00.087Z,39.00
2023-01-23T07:14:28.914Z,54.75
2023-01-23T07:16:56.790Z,44.00
2023-01-23T07:19:24.280Z,57.50
2023-01-23T07:21:51.193Z,61.00
2023-01-23T07:24:18.018Z,62.75
2023-01-23T07:26:44.873Z,50.75
2023-01-23T07:29:11.770Z,60.50
2023-01-23T07:31:38.740Z,91.75
2023-01-23T07:34:05.564Z,70.75
2023-01-23T07:36:32.357Z,79.25
2023-01-23T07:38:59.143Z,82.75
2023-01-23T07:41:25.981Z,79.75
2023-01-23T07:43:52.730Z,86.75
2023-01-23T07:46:19.548Z,82.75
2023-01-23T07:48:46.332Z,79.50
2023-01-23T07:51:13.185Z,81.25
2023-01-23T07:53:40.040Z,87.50
2023-01-23T07:56:07.238Z,89.00
2023-01-23T07:58:34.181Z,96.25
2023-01-23T08:01:08.271Z,116.25
2023-01-23T08:03:35.094Z,121.00
2023-01-23T08:06:01.861Z,109.00
2023-01-23T08:08:28.709Z,89.50
2023-01-23T08:10:55.480Z,80.25
2023-01-23T08:13:22.194Z,83.25
2023-01-23T08:15:48.957Z,86.75
2023-01-23T08:18:15.780Z,81.75
2023-01-23T08:20:42.531Z,84.00
2023-01-23T08:23:09.276Z,85.25
2023-01-23T08:25:38.426Z,96.00
2023-01-23T08:28:05.399Z,89.50
2023-01-23T08:30:32.443Z,89.75
2023-01-23T08:33:00.104Z,98.50
2023-01-23T08:35:27.144Z,91.00
2023-01-23T08:37:54.174Z,92.00
2023-01-23T08:40:21.442Z,123.75
2023-01-23T08:42:48.566Z,117.50
2023-01-23T08:45:15.510Z,109.75
2023-01-23T08:47:42.473Z,149.00
2023-01-23T08:50:10.250Z,107.25
2023-01-23T08:52:37.148Z,101.25
2023-01-23T08:55:04.184Z,110.25
2023-01-23T08:57:30.999Z,117.25
2023-01-23T08:59:58.082Z,110.00
2023-01-23T09:02:24.844Z,106.75
2023-01-23T09:04:51.602Z,119.50
2023-01-23T09:07:18.558Z,96.25
2023-01-23T09:09:45.264Z,117.25
2023-01-23T09:12:12.092Z,96.50
2023-01-23T09:14:39.011Z,95.25
2023-01-23T09:17:06.363Z,93.25
2023-01-23T09:19:33.711Z,91.00
2023-01-23T09:22:00.546Z,87.50
2023-01-23T09:24:27.337Z,97.25
2023-01-23T09:26:54.196Z,105.25
2023-01-23T09:29:20.971Z,101.25
2023-01-23T09:31:47.859Z,84.75
2023-01-23T09:34:17.072Z,101.00
2023-01-23T09:36:44.156Z,136.25
2023-01-23T09:39:12.127Z,150.00
2023-01-23T09:41:40.736Z,137.75
2023-01-23T09:44:25.669Z,140.00
2023-01-23T09:46:54.943Z,120.00
2023-01-23T09:49:49.478Z,118.75
2023-01-23T09:52:26.071Z,92.00
2023-01-23T09:55:02.051Z,84.50
2023-01-23T09:57:42.826Z,73.25
2023-01-23T10:00:32.997Z,84.00
2023-01-23T10:03:11.106Z,94.50
2023-01-23T10:05:46.881Z,102.50
2023-01-23T10:08:46.751Z,109.00
2023-01-23T10:11:13.830Z,146.25
2023-01-23T10:13:48.238Z,116.75
2023-01-23T10:16:38.171Z,120.00
2023-01-23T10:19:36.522Z,134.50
2023-01-23T10:22:09.002Z,107.00
2023-01-23T10:24:51.830Z,96.50
2023-01-23T10:27:22.900Z,109.00
2023-01-23T10:30:14.519Z,122.75
2023-01-23T10:33:01.131Z,146.50
2023-01-23T10:35:40.917Z,143.00
2023-01-23T10:38:49.941Z,130.75
2023-01-23T10:41:23.353Z,110.50
2023-01-23T10:43:52.712Z,98.50
2023-01-23T10:46:44.135Z,92.50
2023-01-23T10:49:11.004Z,105.00
2023-01-23T10:51:37.714Z,86.00
2023-01-23T10:54:25.958Z,118.00
2023-01-23T10:57:22.786Z,101.25
2023-01-23T11:00:01.469Z,68.75
2023-01-23T11:02:34.350Z,68.00
2023-01-23T11:05:02.869Z,60.75
2023-01-23T11:07:32.186Z,63.50
2023-01-23T11:10:13.285Z,72.00
2023-01-23T11:12:49.251Z,68.25
2023-01-23T11:15:31.247Z,64.50
2023-01-23T11:18:00.725Z,57.75
2023-01-23T11:20:37.615Z,56.25
2023-01-23T11:23:13.260Z,58.75
2023-01-23T11:25:42.409Z,44.25
2023-01-23T11:28:24.924Z,45.00
2023-01-23T11:31:15.762Z,53.50
2023-01-23T11:34:04.036Z,51.50
2023-01-23T11:36:43.007Z,52.25
2023-01-23T11:39:23.119Z,41.00
2023-01-23T11:41:50.203Z,52.25
2023-01-23T11:44:21.135Z,40.00
2023-01-23T11:47:26.475Z,40.50
2023-01-23T11:49:53.157Z,39.00
2023-01-23T11:52:34.910Z,45.75
2023-01-23T11:55:39.293Z,35.25
2023-01-23T11:58:14.819Z,50.50
2023-01-23T12:01:15.479Z,48.25
2023-01-23T12:04:00.041Z,35.25
2023-01-23T12:06:40.444Z,46.75
2023-01-23T12:09:18.531Z,28.00
2023-01-23T12:11:50.790Z,34.00
2023-01-23T12:14:46.051Z,35.50
2023-01-23T12:17:18.984Z,36.00
2023-01-23T12:20:06.989Z,43.75
2023-01-23T12:23:11.087Z,40.00
2023-01-23T12:25:40.320Z,37.75
2023-01-23T12:28:37.436Z,40.00
2023-01-23T12:31:08.224Z,31.50
2023-01-23T12:33:56.848Z,33.25
2023-01-23T12:36:28.648Z,47.00
2023-01-23T12:39:10.455Z,50.50
2023-01-23T12:41:45.483Z,36.25
2023-01-23T12:44:27.851Z,42.25
2023-01-23T12:46:57.351Z,46.00
2023-01-23T12:49:28.252Z,41.50
2023-01-23T12:52:20.761Z,51.50
2023-01-23T12:55:07.845Z,59.50
2023-01-23T12:57:58.954Z,37.00
2023-01-23T13:00:52.871Z,32.00
2023-01-23T13:03:44.809Z,46.75
2023-01-23T13:06:34.868Z,40.50
2023-01-23T13:09:18.433Z,37.75
2023-01-23T13:12:20.448Z,37.50
2023-01-23T13:15:13.938Z,52.75
2023-01-23T13:17:49.428Z,48.75
2023-01-23T13:20:42.679Z,37.00
2023-01-23T13:23:31.206Z,33.00
2023-01-23T13:26:16.012Z,38.75
2023-01-23T13:29:04.021Z,37.00
2023-01-23T13:31:38.257Z,46.25
2023-01-23T13:34:17.072Z,37.00
2023-01-23T13:36:48.376Z,40.00
2023-01-23T13:39:18.057Z,38.00
2023-01-23T13:41:46.637Z,48.50
2023-01-23T13:44:21.343Z,52.25
2023-01-23T14:22:31.275Z,116.25
2023-01-23T14:24:58.253Z,93.75
2023-01-23T14:27:51.242Z,108.75
2023-01-23T14:30:28.211Z,121.75
2023-01-23T14:32:55.635Z,142.00
2023-01-23T14:35:28.294Z,129.00
2023-01-23T14:37:59.224Z,131.75
2023-01-23T14:40:30.589Z,133.50
2023-01-23T14:43:05.010Z,137.00
2023-01-23T14:45:33.531Z,139.00
2023-01-23T14:48:06.351Z,164.50
2023-01-23T14:50:33.823Z,196.80
2023-01-23T14:53:04.047Z,156.67
2023-01-23T14:55:35.235Z,130.00
2023-01-23T14:58:04.129Z,124.00
2023-01-23T15:00:32.044Z,129.00
2023-01-23T15:02:58.848Z,115.50
2023-01-23T15:05:27.576Z,90.75
2023-01-23T15:08:07.416Z,96.00
2023-01-23T15:10:46.869Z,108.00
2023-01-23T15:13:24.843Z,122.50
2023-01-23T15:16:06.429Z,134.25
2023-01-23T15:18:36.024Z,131.25
2023-01-23T15:21:05.906Z,141.50
2023-01-23T15:23:40.498Z,156.75
2023-01-23T15:26:19.737Z,159.25
2023-01-23T15:28:55.754Z,163.50
2023-01-23T15:31:29.920Z,190.60
2023-01-23T15:34:18.892Z,202.40
2023-01-23T15:37:06.480Z,145.00
2023-01-23T15:39:51.967Z,169.60
2023-01-23T15:42:18.669Z,179.50
2023-01-23T15:44:45.661Z,176.20
2023-01-23T15:47:12.480Z,178.60
2023-01-23T15:49:40.356Z,186.75
2023-01-23T15:52:25.919Z,185.50
2023-01-23T15:55:00.802Z,175.25
2023-01-23T15:57:27.772Z,153.25
2023-01-23T15:59:54.840Z,162.60
2023-01-23T16:02:30.663Z,213.00
2023-01-23T16:04:58.982Z,188.25
2023-01-23T16:07:47.093Z,173.60
2023-01-23T16:10:16.746Z,175.20
2023-01-23T16:12:44.213Z,171.00
2023-01-23T16:15:19.583Z,167.80
2023-01-23T16:17:47.069Z,191.40
2023-01-23T16:20:19.158Z,187.00
2023-01-23T16:22:51.187Z,213.00
2023-01-23T16:25:42.931Z,216.80
2023-01-23T16:28:21.987Z,211.75
2023-01-23T16:30:50.871Z,214.00
2023-01-23T16:33:18.145Z,200.80
2023-01-23T16:35:45.527Z,217.00
2023-01-23T16:38:20.088Z,192.20
2023-01-23T16:40:47.084Z,211.00
2023-01-23T16:43:13.914Z,176.75
2023-01-23T16:45:40.689Z,201.25
2023-01-23T16:48:09.175Z,185.00
2023-01-23T16:51:00.402Z,188.75
2023-01-23T16:53:27.201Z,197.60
2023-01-23T16:55:58.059Z,178.75
2023-01-23T16:58:28.863Z,173.00
2023-01-23T17:01:03.277Z,175.60
2023-01-23T17:03:35.239Z,156.75
2023-01-23T17:06:02.336Z,168.50
2023-01-23T17:08:29.365Z,182.00
2023-01-23T17:11:00.539Z,184.80
2023-01-23T17:13:31.016Z,216.40
2023-01-23T17:15:59.183Z,189.50
2023-01-23T17:18:29.066Z,184.00
2023-01-23T17:20:57.499Z,190.20
2023-01-23T17:23:25.545Z,213.80
2023-01-23T17:26:00.924Z,211.00
2023-01-23T17:28:29.237Z,185.60
2023-01-23T17:31:00.561Z,187.00
2023-01-23T17:33:31.700Z,180.50
2023-01-23T17:36:00.455Z,173.50
2023-01-23T17:38:34.553Z,201.40
2023-01-23T17:41:01.586Z,189.00
2023-01-23T17:43:29.102Z,187.25
2023-01-23T17:45:56.092Z,209.00
2023-01-23T17:48:29.430Z,199.40
2023-01-23T17:50:56.625Z,169.40
2023-01-23T17:53:27.849Z,171.60
2023-01-23T17:55:54.849Z,157.25
2023-01-23T17:58:21.690Z,155.75
2023-01-23T18:00:51.133Z,159.00
2023-01-23T18:03:22.001Z,156.25
2023-01-23T18:05:48.877Z,159.50
2023-01-23T18:08:18.266Z,159.75
2023-01-23T18:10:47.800Z,139.75
2023-01-23T18:13:42.250Z,131.25
2023-01-23T18:16:23.975Z,124.50
2023-01-23T18:19:13.311Z,125.00
2023-01-23T18:21:40.662Z,121.75
2023-01-23T18:24:29.295Z,138.50
2023-01-23T18:26:58.249Z,135.50
2023-01-23T18:29:33.605Z,142.75
2023-01-23T18:32:10.090Z,138.00
2023-01-23T18:34:55.338Z,141.00
2023-01-23T18:37:32.092Z,131.25
2023-01-23T18:40:18.195Z,117.75
2023-01-23T18:43:04.467Z,112.00
2023-01-23T18:45:31.941Z,95.00
2023-01-23T18:47:59.139Z,118.00
2023-01-23T18:50:27.122Z,193.20
2023-01-23T18:53:17.523Z,165.60
2023-01-23T18:55:58.658Z,172.00
2023-01-23T18:58:34.397Z,179.75
2023-01-23T19:01:13.526Z,151.25
2023-01-23T19:03:43.568Z,174.00
2023-01-23T19:06:20.045Z,109.25
2023-01-23T19:08:48.389Z,164.00
2023-01-23T19:11:52.418Z,140.75
2023-01-23T19:14:45.981Z,128.25
2023-01-23T19:17:41.369Z,131.75
2023-01-23T19:20:23.332Z,153.25
2023-01-23T19:22:55.459Z,150.25
2023-01-23T19:25:22.941Z,160.00
2023-01-23T19:27:56.073Z,177.80
2023-01-23T19:30:23.623Z,175.00
2023-01-23T19:32:50.613Z,130.50
2023-01-23T19:35:18.393Z,153.00
2023-01-23T19:37:45.507Z,108.50
2023-01-23T19:40:14.559Z,148.50
2023-01-23T19:43:01.411Z,117.00
2023-01-23T19:45:30.638Z,131.50
2023-01-23T19:47:59.372Z,124.25
2023-01-23T19:50:26.332Z,92.50
2023-01-23T19:52:55.176Z,127.50
2023-01-23T19:55:26.229Z,91.75
2023-01-23T19:57:54.146Z,75.25
2023-01-23T20:00:21.517Z,63.75
2023-01-23T20:02:48.856Z,71.25
2023-01-23T20:05:15.759Z,101.50
2023-01-23T20:07:42.832Z,109.25
2023-01-23T20:10:11.285Z,107.75
2023-01-23T20:12:46.012Z,69.50
2023-01-23T20:15:14.821Z,84.75
2023-01-23T20:17:41.920Z,95.50
2023-01-23T20:20:11.402Z,74.75
2023-01-23T20:22:39.563Z,72.00
2023-01-23T20:25:08.703Z,64.50
2023-01-23T20:27:36.540Z,72.75
2023-01-23T20:30:07.193Z,79.25
2023-01-23T20:32:34.286Z,73.25
2023-01-23T20:35:01.262Z,87.75
2023-01-23T20:37:28.553Z,82.75
2023-01-23T20:39:55.879Z,133.25
2023-01-23T20:42:22.641Z,99.75
2023-01-23T20:44:49.648Z,88.50
2023-01-23T20:47:16.515Z,88.75
2023-01-23T20:49:43.343Z,67.25
2023-01-23T20:52:28.550Z,65.00
2023-01-23T20:54:55.363Z,128.00
2023-01-23T20:57:22.211Z,52.00
2023-01-23T20:59:49.021Z,92.50
2023-01-23T21:02:25.643Z,61.00
2023-01-23T21:04:53.247Z,89.00
2023-01-23T21:07:22.852Z,78.00
2023-01-23T21:09:49.706Z,40.00
2023-01-23T21:12:16.657Z,50.25
2023-01-23T21:14:43.433Z,41.25
2023-01-23T21:17:10.798Z,44.25
2023-01-23T21:19:39.087Z,58.25
2023-01-23T21:22:06.862Z,58.50
2023-01-23T21:24:34.736Z,106.75
2023-01-23T21:27:03.711Z,82.00
2023-01-23T21:29:31.473Z,77.75
2023-01-23T21:31:59.045Z,76.75
2023-01-23T21:34:26.537Z,54.75
2023-01-23T21:36:53.500Z,61.00
2023-01-23T21:39:20.295Z,83.75
2023-01-23T21:41:47.207Z,125.00
2023-01-23T21:44:14.199Z,122.00
2023-01-23T21:46:41.539Z,126.50
2023-01-23T21:49:08.508Z,113.00
2023-01-23T21:51:35.391Z,138.50
2023-01-23T21:54:02.295Z,153.25
2023-01-23T21:56:29.186Z,135.25
2023-01-23T21:58:56.105Z,121.75
2023-01-23T22:01:35.698Z,119.00
2023-01-23T22:04:09.421Z,125.00
2023-01-23T22:06:38.295Z,122.75
2023-01-23T22:09:06.248Z,113.75
2023-01-23T22:11:33.483Z,109.50
2023-01-23T22:14:00.500Z,116.25
2023-01-23T22:16:45.641Z,107.50
2023-01-23T22:19:15.533Z,115.25
2023-01-23T22:21:43.842Z,111.25
2023-01-23T22:24:10.708Z,122.75
2023-01-23T22:26:37.603Z,105.25
2023-01-23T22:29:04.355Z,113.50
2023-01-23T22:31:31.207Z,107.00
2023-01-23T22:33:58.130Z,105.50
2023-01-23T22:36:24.980Z,110.50
2023-01-23T22:38:53.338Z,113.75
2023-01-23T22:41:20.824Z,115.50
2023-01-23T22:43:53.064Z,117.00
2023-01-23T22:46:20.026Z,113.00
2023-01-23T22:48:46.920Z,117.50
2023-01-23T22:51:27.013Z,90.25
2023-01-23T22:53:56.108Z,100.00
2023-01-23T22:56:24.266Z,94.25
2023-01-23T22:58:52.595Z,81.50
2023-01-23T23:01:20.575Z,87.75
2023-01-23T23:03:47.379Z,90.00
2023-01-23T23:06:16.390Z,98.00
2023-01-23T23:08:47.265Z,93.00
2023-01-23T23:11:23.510Z,133.25
2023-01-23T23:13:50.491Z,132.50
2023-01-23T23:16:22.630Z,141.00
2023-01-23T23:18:52.401Z,134.00
2023-01-23T23:21:22.833Z,116.75
2023-01-23T23:23:50.349Z,132.50
2023-01-23T23:26:17.209Z,134.75
2023-01-23T23:28:44.335Z,120.50
2023-01-23T23:31:11.333Z,128.00
2023-01-23T23:33:38.496Z,130.00
2023-01-23T23:36:06.469Z,139.00
2023-01-23T23:38:33.217Z,120.50
2023-01-23T23:41:02.480Z,112.25
2023-01-23T23:43:29.691Z,113.25
2023-01-23T23:46:02.137Z,115.00
2023-01-23T23:48:30.571Z,107.00
2023-01-23T23:51:00.504Z,107.00
2023-01-23T23:53:27.522Z,101.25
2023-01-23T23:55:54.430Z,85.75
2023-01-23T23:58:21.307Z,71.25
